sensor_id;sensor_type;location;lat;lon;timestamp;P1;durP1;ratioP1;P2;durP2;ratioP2
76357;SDS011;65185;21.060;105.826;2023-02-28T00:00:24;115.03;;;60.05;;
76357;SDS011;65185;21.060;105.826;2023-02-28T00:02:51;123.38;;;60.58;;
76357;SDS011;65185;21.060;105.826;2023-02-28T00:05:19;125.93;;;62.35;;
76357;SDS011;65185;21.060;105.826;2023-02-28T00:07:47;123.10;;;63.15;;
76357;SDS011;65185;21.060;105.826;2023-02-28T00:10:17;127.30;;;65.15;;
76357;SDS011;65185;21.060;105.826;2023-02-28T00:12:52;141.65;;;69.38;;
76357;SDS011;65185;21.060;105.826;2023-02-28T00:15:22;156.55;;;79.35;;
76357;SDS011;65185;21.060;105.826;2023-02-28T00:17:50;145.50;;;78.95;;
76357;SDS011;65185;21.060;105.826;2023-02-28T00:20:17;146.45;;;77.57;;
76357;SDS011;65185;21.060;105.826;2023-02-28T00:22:45;158.93;;;82.47;;
76357;SDS011;65185;21.060;105.826;2023-02-28T00:25:15;146.98;;;76.63;;
76357;SDS011;65185;21.060;105.826;2023-02-28T00:27:44;145.63;;;77.30;;
76357;SDS011;65185;21.060;105.826;2023-02-28T00:30:16;159.82;;;82.88;;
76357;SDS011;65185;21.060;105.826;2023-02-28T00:32:45;155.82;;;82.13;;
76357;SDS011;65185;21.060;105.826;2023-02-28T00:35:12;145.82;;;78.68;;
76357;SDS011;65185;21.060;105.826;2023-02-28T00:37:38;141.77;;;74.85;;
76357;SDS011;65185;21.060;105.826;2023-02-28T00:40:06;140.10;;;75.40;;
76357;SDS011;65185;21.060;105.826;2023-02-28T00:42:33;140.23;;;78.47;;
76357;SDS011;65185;21.060;105.826;2023-02-28T00:45:00;143.90;;;76.63;;
76357;SDS011;65185;21.060;105.826;2023-02-28T00:47:29;137.10;;;75.35;;
76357;SDS011;65185;21.060;105.826;2023-02-28T00:49:56;139.18;;;78.13;;
76357;SDS011;65185;21.060;105.826;2023-02-28T00:52:23;145.15;;;79.70;;
76357;SDS011;65185;21.060;105.826;2023-02-28T00:54:49;158.93;;;84.95;;
76357;SDS011;65185;21.060;105.826;2023-02-28T00:57:16;135.60;;;76.72;;
76357;SDS011;65185;21.060;105.826;2023-02-28T00:59:43;138.20;;;76.88;;
76357;SDS011;65185;21.060;105.826;2023-02-28T01:02:09;137.82;;;77.05;;
76357;SDS011;65185;21.060;105.826;2023-02-28T01:04:36;136.63;;;73.20;;
76357;SDS011;65185;21.060;105.826;2023-02-28T01:07:02;146.20;;;81.97;;
76357;SDS011;65185;21.060;105.826;2023-02-28T01:09:29;139.27;;;78.53;;
76357;SDS011;65185;21.060;105.826;2023-02-28T01:11:56;135.05;;;78.85;;
76357;SDS011;65185;21.060;105.826;2023-02-28T01:14:22;138.65;;;80.18;;
76357;SDS011;65185;21.060;105.826;2023-02-28T01:16:49;152.75;;;84.32;;
76357;SDS011;65185;21.060;105.826;2023-02-28T01:19:18;137.38;;;77.07;;
76357;SDS011;65185;21.060;105.826;2023-02-28T01:21:44;132.98;;;75.80;;
76357;SDS011;65185;21.060;105.826;2023-02-28T01:24:11;125.07;;;66.88;;
76357;SDS011;65185;21.060;105.826;2023-02-28T01:26:38;110.38;;;65.35;;
76357;SDS011;65185;21.060;105.826;2023-02-28T01:29:04;120.07;;;66.60;;
76357;SDS011;65185;21.060;105.826;2023-02-28T01:31:31;115.38;;;61.40;;
76357;SDS011;65185;21.060;105.826;2023-02-28T01:33:57;101.95;;;59.33;;
76357;SDS011;65185;21.060;105.826;2023-02-28T01:36:25;96.25;;;53.50;;
76357;SDS011;65185;21.060;105.826;2023-02-28T01:38:52;82.65;;;45.88;;
76357;SDS011;65185;21.060;105.826;2023-02-28T01:41:23;85.25;;;46.80;;
76357;SDS011;65185;21.060;105.826;2023-02-28T01:43:54;79.63;;;44.22;;
76357;SDS011;65185;21.060;105.826;2023-02-28T01:46:30;80.70;;;42.78;;
76357;SDS011;65185;21.060;105.826;2023-02-28T01:49:08;77.47;;;42.28;;
76357;SDS011;65185;21.060;105.826;2023-02-28T01:51:41;80.57;;;41.83;;
76357;SDS011;65185;21.060;105.826;2023-02-28T01:54:12;72.40;;;39.03;;
76357;SDS011;65185;21.060;105.826;2023-02-28T01:56:46;82.35;;;41.70;;
76357;SDS011;65185;21.060;105.826;2023-02-28T01:59:36;74.35;;;41.53;;
76357;SDS011;65185;21.060;105.826;2023-02-28T02:02:17;80.47;;;45.05;;
76357;SDS011;65185;21.060;105.826;2023-02-28T02:04:58;83.13;;;44.35;;
76357;SDS011;65185;21.060;105.826;2023-02-28T02:07:38;82.80;;;45.13;;
76357;SDS011;65185;21.060;105.826;2023-02-28T02:12:52;99.78;;;49.88;;
76357;SDS011;65185;21.060;105.826;2023-02-28T02:18:14;86.97;;;45.30;;
76357;SDS011;65185;21.060;105.826;2023-02-28T02:32:08;75.50;;;38.72;;
76357;SDS011;65185;21.060;105.826;2023-02-28T02:34:58;75.57;;;39.63;;
76357;SDS011;65185;21.060;105.826;2023-02-28T02:40:43;63.17;;;36.35;;
76357;SDS011;65185;21.060;105.826;2023-02-28T02:43:29;69.47;;;38.25;;
76357;SDS011;65185;21.060;105.826;2023-02-28T02:46:21;61.72;;;34.80;;
76357;SDS011;65185;21.060;105.826;2023-02-28T02:48:54;72.25;;;36.60;;
76357;SDS011;65185;21.060;105.826;2023-02-28T02:51:25;70.93;;;36.42;;
76357;SDS011;65185;21.060;105.826;2023-02-28T02:54:04;59.78;;;33.28;;
76357;SDS011;65185;21.060;105.826;2023-02-28T02:56:42;67.05;;;33.83;;
76357;SDS011;65185;21.060;105.826;2023-02-28T02:59:13;68.35;;;37.00;;
76357;SDS011;65185;21.060;105.826;2023-02-28T03:01:48;66.18;;;35.38;;
76357;SDS011;65185;21.060;105.826;2023-02-28T03:04:22;69.20;;;38.67;;
76357;SDS011;65185;21.060;105.826;2023-02-28T03:09:21;71.20;;;39.50;;
76357;SDS011;65185;21.060;105.826;2023-02-28T03:11:48;83.10;;;44.42;;
76357;SDS011;65185;21.060;105.826;2023-02-28T03:22:24;87.13;;;49.38;;
76357;SDS011;65185;21.060;105.826;2023-02-28T03:33:48;87.53;;;48.00;;
76357;SDS011;65185;21.060;105.826;2023-02-28T03:36:28;94.40;;;50.83;;
76357;SDS011;65185;21.060;105.826;2023-02-28T03:41:38;90.25;;;49.78;;
76357;SDS011;65185;21.060;105.826;2023-02-28T03:44:17;81.82;;;47.55;;
76357;SDS011;65185;21.060;105.826;2023-02-28T03:46:58;93.82;;;50.20;;
76357;SDS011;65185;21.060;105.826;2023-02-28T03:49:35;81.72;;;45.65;;
76357;SDS011;65185;21.060;105.826;2023-02-28T03:52:20;80.90;;;47.28;;
76357;SDS011;65185;21.060;105.826;2023-02-28T03:54:54;76.90;;;43.78;;
76357;SDS011;65185;21.060;105.826;2023-02-28T03:57:33;73.40;;;40.95;;
76357;SDS011;65185;21.060;105.826;2023-02-28T04:00:06;75.15;;;43.50;;
76357;SDS011;65185;21.060;105.826;2023-02-28T04:02:44;79.57;;;46.97;;
76357;SDS011;65185;21.060;105.826;2023-02-28T04:05:18;79.50;;;43.75;;
76357;SDS011;65185;21.060;105.826;2023-02-28T04:07:46;82.82;;;45.45;;
76357;SDS011;65185;21.060;105.826;2023-02-28T04:10:13;81.25;;;47.88;;
76357;SDS011;65185;21.060;105.826;2023-02-28T04:12:41;79.30;;;45.40;;
76357;SDS011;65185;21.060;105.826;2023-02-28T04:15:08;83.07;;;47.60;;
76357;SDS011;65185;21.060;105.826;2023-02-28T04:17:36;88.65;;;49.08;;
76357;SDS011;65185;21.060;105.826;2023-02-28T04:20:03;77.95;;;45.65;;
76357;SDS011;65185;21.060;105.826;2023-02-28T04:22:35;71.65;;;42.15;;
76357;SDS011;65185;21.060;105.826;2023-02-28T04:25:02;80.78;;;45.35;;
76357;SDS011;65185;21.060;105.826;2023-02-28T04:27:30;80.45;;;46.35;;
76357;SDS011;65185;21.060;105.826;2023-02-28T04:29:57;80.70;;;45.33;;
76357;SDS011;65185;21.060;105.826;2023-02-28T04:32:24;76.13;;;43.63;;
76357;SDS011;65185;21.060;105.826;2023-02-28T04:34:50;74.07;;;43.08;;
76357;SDS011;65185;21.060;105.826;2023-02-28T04:37:17;79.80;;;44.08;;
76357;SDS011;65185;21.060;105.826;2023-02-28T04:39:43;73.20;;;42.58;;
76357;SDS011;65185;21.060;105.826;2023-02-28T04:42:10;73.47;;;41.92;;
76357;SDS011;65185;21.060;105.826;2023-02-28T04:44:38;77.50;;;44.63;;
76357;SDS011;65185;21.060;105.826;2023-02-28T04:47:05;58.38;;;36.60;;
76357;SDS011;65185;21.060;105.826;2023-02-28T04:49:32;67.68;;;39.63;;
76357;SDS011;65185;21.060;105.826;2023-02-28T04:51:59;70.70;;;39.95;;
76357;SDS011;65185;21.060;105.826;2023-02-28T04:54:26;65.50;;;36.47;;
76357;SDS011;65185;21.060;105.826;2023-02-28T04:56:53;74.47;;;42.00;;
76357;SDS011;65185;21.060;105.826;2023-02-28T04:59:20;77.65;;;43.13;;
76357;SDS011;65185;21.060;105.826;2023-02-28T05:01:47;72.15;;;43.60;;
76357;SDS011;65185;21.060;105.826;2023-02-28T05:04:14;72.25;;;40.38;;
76357;SDS011;65185;21.060;105.826;2023-02-28T05:06:41;68.10;;;41.60;;
76357;SDS011;65185;21.060;105.826;2023-02-28T05:09:08;62.38;;;37.53;;
76357;SDS011;65185;21.060;105.826;2023-02-28T05:11:39;62.55;;;38.33;;
76357;SDS011;65185;21.060;105.826;2023-02-28T05:14:07;70.43;;;41.33;;
76357;SDS011;65185;21.060;105.826;2023-02-28T05:16:37;80.03;;;44.72;;
76357;SDS011;65185;21.060;105.826;2023-02-28T05:19:04;72.07;;;42.03;;
76357;SDS011;65185;21.060;105.826;2023-02-28T05:21:35;81.43;;;46.72;;
76357;SDS011;65185;21.060;105.826;2023-02-28T05:24:05;74.22;;;43.20;;
76357;SDS011;65185;21.060;105.826;2023-02-28T05:26:36;72.85;;;43.10;;
76357;SDS011;65185;21.060;105.826;2023-02-28T05:29:05;76.63;;;45.95;;
76357;SDS011;65185;21.060;105.826;2023-02-28T05:31:32;75.72;;;43.38;;
76357;SDS011;65185;21.060;105.826;2023-02-28T05:33:59;73.50;;;44.40;;
76357;SDS011;65185;21.060;105.826;2023-02-28T05:36:26;70.60;;;44.05;;
76357;SDS011;65185;21.060;105.826;2023-02-28T05:38:53;77.15;;;44.33;;
76357;SDS011;65185;21.060;105.826;2023-02-28T05:41:20;65.45;;;40.65;;
76357;SDS011;65185;21.060;105.826;2023-02-28T05:43:51;72.03;;;43.33;;
76357;SDS011;65185;21.060;105.826;2023-02-28T05:46:17;77.65;;;44.75;;
76357;SDS011;65185;21.060;105.826;2023-02-28T05:48:45;82.63;;;46.20;;
76357;SDS011;65185;21.060;105.826;2023-02-28T05:53:40;72.13;;;42.33;;
76357;SDS011;65185;21.060;105.826;2023-02-28T05:56:06;77.20;;;42.92;;
76357;SDS011;65185;21.060;105.826;2023-02-28T05:58:33;68.10;;;41.88;;
76357;SDS011;65185;21.060;105.826;2023-02-28T06:01:00;72.15;;;43.58;;
76357;SDS011;65185;21.060;105.826;2023-02-28T06:03:45;62.88;;;38.72;;
76357;SDS011;65185;21.060;105.826;2023-02-28T06:06:12;71.30;;;39.28;;
76357;SDS011;65185;21.060;105.826;2023-02-28T06:08:38;55.75;;;35.75;;
76357;SDS011;65185;21.060;105.826;2023-02-28T06:11:05;65.88;;;40.42;;
76357;SDS011;65185;21.060;105.826;2023-02-28T06:13:32;64.80;;;39.70;;
76357;SDS011;65185;21.060;105.826;2023-02-28T06:16:00;61.85;;;38.80;;
76357;SDS011;65185;21.060;105.826;2023-02-28T06:18:27;75.30;;;43.67;;
76357;SDS011;65185;21.060;105.826;2023-02-28T06:20:53;75.88;;;42.88;;
76357;SDS011;65185;21.060;105.826;2023-02-28T06:23:21;75.50;;;46.97;;
76357;SDS011;65185;21.060;105.826;2023-02-28T06:25:47;77.97;;;47.40;;
76357;SDS011;65185;21.060;105.826;2023-02-28T06:28:14;80.95;;;47.45;;
76357;SDS011;65185;21.060;105.826;2023-02-28T06:30:41;84.43;;;47.58;;
76357;SDS011;65185;21.060;105.826;2023-02-28T06:33:08;82.13;;;48.22;;
76357;SDS011;65185;21.060;105.826;2023-02-28T06:35:34;78.72;;;46.72;;
76357;SDS011;65185;21.060;105.826;2023-02-28T06:38:01;75.65;;;46.40;;
76357;SDS011;65185;21.060;105.826;2023-02-28T06:40:28;76.45;;;45.28;;
76357;SDS011;65185;21.060;105.826;2023-02-28T06:42:59;75.68;;;45.90;;
76357;SDS011;65185;21.060;105.826;2023-02-28T06:45:25;75.82;;;46.58;;
76357;SDS011;65185;21.060;105.826;2023-02-28T06:47:52;80.35;;;48.83;;
76357;SDS011;65185;21.060;105.826;2023-02-28T06:50:19;87.72;;;51.15;;
76357;SDS011;65185;21.060;105.826;2023-02-28T06:52:46;75.40;;;47.08;;
76357;SDS011;65185;21.060;105.826;2023-02-28T06:55:12;80.18;;;47.25;;
76357;SDS011;65185;21.060;105.826;2023-02-28T06:57:39;75.63;;;47.08;;
76357;SDS011;65185;21.060;105.826;2023-02-28T07:00:09;79.75;;;46.20;;
76357;SDS011;65185;21.060;105.826;2023-02-28T07:02:36;76.45;;;46.08;;
76357;SDS011;65185;21.060;105.826;2023-02-28T07:05:03;77.90;;;46.97;;
76357;SDS011;65185;21.060;105.826;2023-02-28T07:07:31;77.80;;;46.33;;
76357;SDS011;65185;21.060;105.826;2023-02-28T07:09:57;76.35;;;46.03;;
76357;SDS011;65185;21.060;105.826;2023-02-28T07:12:24;74.25;;;43.38;;
76357;SDS011;65185;21.060;105.826;2023-02-28T07:14:50;75.70;;;45.22;;
76357;SDS011;65185;21.060;105.826;2023-02-28T07:17:17;79.55;;;47.92;;
76357;SDS011;65185;21.060;105.826;2023-02-28T07:19:44;73.97;;;43.92;;
76357;SDS011;65185;21.060;105.826;2023-02-28T07:22:10;77.82;;;46.95;;
76357;SDS011;65185;21.060;105.826;2023-02-28T07:24:37;79.85;;;43.85;;
76357;SDS011;65185;21.060;105.826;2023-02-28T07:27:04;81.82;;;47.92;;
76357;SDS011;65185;21.060;105.826;2023-02-28T07:29:34;84.28;;;52.85;;
76357;SDS011;65185;21.060;105.826;2023-02-28T07:32:01;78.60;;;48.65;;
76357;SDS011;65185;21.060;105.826;2023-02-28T07:34:28;75.03;;;48.20;;
76357;SDS011;65185;21.060;105.826;2023-02-28T07:36:54;81.55;;;48.20;;
76357;SDS011;65185;21.060;105.826;2023-02-28T07:39:25;74.10;;;44.33;;
76357;SDS011;65185;21.060;105.826;2023-02-28T07:41:52;79.30;;;48.15;;
76357;SDS011;65185;21.060;105.826;2023-02-28T07:44:18;80.07;;;46.78;;
76357;SDS011;65185;21.060;105.826;2023-02-28T07:46:46;80.57;;;46.13;;
76357;SDS011;65185;21.060;105.826;2023-02-28T07:49:13;86.43;;;48.20;;
76357;SDS011;65185;21.060;105.826;2023-02-28T07:51:39;83.32;;;49.00;;
76357;SDS011;65185;21.060;105.826;2023-02-28T07:54:06;81.57;;;48.30;;
76357;SDS011;65185;21.060;105.826;2023-02-28T07:56:33;82.20;;;48.22;;
76357;SDS011;65185;21.060;105.826;2023-02-28T07:59:00;81.63;;;48.80;;
76357;SDS011;65185;21.060;105.826;2023-02-28T08:01:26;79.50;;;48.63;;
76357;SDS011;65185;21.060;105.826;2023-02-28T08:03:53;79.07;;;50.13;;
76357;SDS011;65185;21.060;105.826;2023-02-28T08:06:22;77.28;;;48.50;;
76357;SDS011;65185;21.060;105.826;2023-02-28T08:08:52;74.57;;;47.78;;
76357;SDS011;65185;21.060;105.826;2023-02-28T08:11:19;77.63;;;47.72;;
76357;SDS011;65185;21.060;105.826;2023-02-28T08:13:45;68.95;;;43.00;;
76357;SDS011;65185;21.060;105.826;2023-02-28T08:16:12;74.97;;;43.85;;
76357;SDS011;65185;21.060;105.826;2023-02-28T08:18:48;69.97;;;40.67;;
76357;SDS011;65185;21.060;105.826;2023-02-28T08:21:15;70.85;;;42.88;;
76357;SDS011;65185;21.060;105.826;2023-02-28T08:23:42;78.97;;;45.42;;
76357;SDS011;65185;21.060;105.826;2023-02-28T08:26:09;82.13;;;45.72;;
76357;SDS011;65185;21.060;105.826;2023-02-28T08:28:36;70.43;;;43.70;;
76357;SDS011;65185;21.060;105.826;2023-02-28T08:31:06;72.45;;;42.75;;
76357;SDS011;65185;21.060;105.826;2023-02-28T08:33:34;75.53;;;45.80;;
76357;SDS011;65185;21.060;105.826;2023-02-28T08:36:02;77.40;;;46.22;;
76357;SDS011;65185;21.060;105.826;2023-02-28T08:38:28;81.18;;;46.45;;
76357;SDS011;65185;21.060;105.826;2023-02-28T08:40:59;76.32;;;44.10;;
76357;SDS011;65185;21.060;105.826;2023-02-28T08:43:27;68.82;;;43.60;;
76357;SDS011;65185;21.060;105.826;2023-02-28T08:45:55;80.57;;;49.42;;
76357;SDS011;65185;21.060;105.826;2023-02-28T08:48:22;78.57;;;47.10;;
76357;SDS011;65185;21.060;105.826;2023-02-28T08:50:57;80.07;;;46.50;;
76357;SDS011;65185;21.060;105.826;2023-02-28T08:53:27;81.70;;;46.88;;
76357;SDS011;65185;21.060;105.826;2023-02-28T08:55:58;77.30;;;46.22;;
76357;SDS011;65185;21.060;105.826;2023-02-28T08:58:29;81.53;;;47.33;;
76357;SDS011;65185;21.060;105.826;2023-02-28T09:00:56;71.80;;;43.10;;
76357;SDS011;65185;21.060;105.826;2023-02-28T09:03:23;86.43;;;45.88;;
76357;SDS011;65185;21.060;105.826;2023-02-28T09:05:53;66.88;;;42.28;;
76357;SDS011;65185;21.060;105.826;2023-02-28T09:08:24;74.38;;;43.80;;
76357;SDS011;65185;21.060;105.826;2023-02-28T09:10:52;74.63;;;43.83;;
76357;SDS011;65185;21.060;105.826;2023-02-28T09:13:21;75.30;;;47.33;;
76357;SDS011;65185;21.060;105.826;2023-02-28T09:15:47;81.00;;;46.95;;
76357;SDS011;65185;21.060;105.826;2023-02-28T09:18:14;78.68;;;47.22;;
76357;SDS011;65185;21.060;105.826;2023-02-28T09:20:44;72.22;;;43.60;;
76357;SDS011;65185;21.060;105.826;2023-02-28T09:23:12;73.55;;;43.13;;
76357;SDS011;65185;21.060;105.826;2023-02-28T09:25:45;72.90;;;41.95;;
76357;SDS011;65185;21.060;105.826;2023-02-28T09:28:13;67.28;;;41.13;;
76357;SDS011;65185;21.060;105.826;2023-02-28T09:30:46;72.30;;;41.63;;
76357;SDS011;65185;21.060;105.826;2023-02-28T09:33:15;77.60;;;44.97;;
76357;SDS011;65185;21.060;105.826;2023-02-28T09:35:46;77.93;;;43.65;;
76357;SDS011;65185;21.060;105.826;2023-02-28T09:38:14;69.72;;;41.70;;
76357;SDS011;65185;21.060;105.826;2023-02-28T09:43:20;68.30;;;39.65;;
76357;SDS011;65185;21.060;105.826;2023-02-28T09:46:26;72.97;;;39.80;;
76357;SDS011;65185;21.060;105.826;2023-02-28T09:48:41;67.50;;;41.35;;
76357;SDS011;65185;21.060;105.826;2023-02-28T09:54:10;65.40;;;39.58;;
76357;SDS011;65185;21.060;105.826;2023-02-28T09:56:45;65.80;;;38.92;;
76357;SDS011;65185;21.060;105.826;2023-02-28T09:59:59;71.45;;;40.05;;
76357;SDS011;65185;21.060;105.826;2023-02-28T10:02:41;74.47;;;41.90;;
76357;SDS011;65185;21.060;105.826;2023-02-28T10:05:30;69.65;;;40.85;;
76357;SDS011;65185;21.060;105.826;2023-02-28T10:10:41;75.93;;;42.20;;
76357;SDS011;65185;21.060;105.826;2023-02-28T10:13:38;73.53;;;39.83;;
76357;SDS011;65185;21.060;105.826;2023-02-28T10:16:20;71.75;;;39.67;;
76357;SDS011;65185;21.060;105.826;2023-02-28T10:19:14;68.20;;;39.35;;
76357;SDS011;65185;21.060;105.826;2023-02-28T10:21:50;68.70;;;39.33;;
76357;SDS011;65185;21.060;105.826;2023-02-28T10:24:34;71.80;;;38.72;;
76357;SDS011;65185;21.060;105.826;2023-02-28T10:29:43;75.97;;;39.58;;
76357;SDS011;65185;21.060;105.826;2023-02-28T10:32:22;71.32;;;39.22;;
76357;SDS011;65185;21.060;105.826;2023-02-28T10:37:33;71.20;;;39.25;;
76357;SDS011;65185;21.060;105.826;2023-02-28T10:40:07;68.85;;;37.40;;
76357;SDS011;65185;21.060;105.826;2023-02-28T10:42:56;70.68;;;39.65;;
76357;SDS011;65185;21.060;105.826;2023-02-28T10:45:27;77.20;;;39.50;;
76357;SDS011;65185;21.060;105.826;2023-02-28T10:47:58;75.22;;;38.60;;
76357;SDS011;65185;21.060;105.826;2023-02-28T10:53:10;75.82;;;39.53;;
76357;SDS011;65185;21.060;105.826;2023-02-28T10:55:56;73.82;;;39.13;;
76357;SDS011;65185;21.060;105.826;2023-02-28T11:01:34;82.80;;;41.65;;
76357;SDS011;65185;21.060;105.826;2023-02-28T11:04:01;75.32;;;42.20;;
76357;SDS011;65185;21.060;105.826;2023-02-28T11:06:29;73.13;;;41.53;;
76357;SDS011;65185;21.060;105.826;2023-02-28T11:08:58;79.65;;;41.45;;
76357;SDS011;65185;21.060;105.826;2023-02-28T11:11:51;76.28;;;41.78;;
76357;SDS011;65185;21.060;105.826;2023-02-28T11:16:50;75.68;;;40.88;;
76357;SDS011;65185;21.060;105.826;2023-02-28T11:19:22;80.50;;;43.53;;
76357;SDS011;65185;21.060;105.826;2023-02-28T11:21:56;78.63;;;44.90;;
76357;SDS011;65185;21.060;105.826;2023-02-28T11:24:28;77.38;;;44.70;;
76357;SDS011;65185;21.060;105.826;2023-02-28T11:26:59;87.05;;;44.97;;
76357;SDS011;65185;21.060;105.826;2023-02-28T11:29:30;88.88;;;47.22;;
76357;SDS011;65185;21.060;105.826;2023-02-28T11:34:46;82.35;;;46.22;;
76357;SDS011;65185;21.060;105.826;2023-02-28T11:37:25;76.95;;;45.13;;
76357;SDS011;65185;21.060;105.826;2023-02-28T11:39:54;86.10;;;45.55;;
76357;SDS011;65185;21.060;105.826;2023-02-28T11:47:44;75.75;;;42.28;;
76357;SDS011;65185;21.060;105.826;2023-02-28T11:56:31;82.03;;;45.50;;
76357;SDS011;65185;21.060;105.826;2023-02-28T11:59:12;73.18;;;41.03;;
76357;SDS011;65185;21.060;105.826;2023-02-28T12:01:58;85.35;;;45.83;;
76357;SDS011;65185;21.060;105.826;2023-02-28T12:10:32;82.53;;;46.95;;
76357;SDS011;65185;21.060;105.826;2023-02-28T12:13:14;87.13;;;48.45;;
76357;SDS011;65185;21.060;105.826;2023-02-28T12:27:10;78.07;;;41.05;;
76357;SDS011;65185;21.060;105.826;2023-02-28T12:34:45;80.15;;;41.58;;
76357;SDS011;65185;21.060;105.826;2023-02-28T12:37:24;75.82;;;39.60;;
76357;SDS011;65185;21.060;105.826;2023-02-28T12:40:07;73.78;;;37.35;;
76357;SDS011;65185;21.060;105.826;2023-02-28T12:42:52;72.25;;;40.10;;
76357;SDS011;65185;21.060;105.826;2023-02-28T12:51:09;76.45;;;37.97;;
76357;SDS011;65185;21.060;105.826;2023-02-28T12:58:37;74.05;;;38.65;;
76357;SDS011;65185;21.060;105.826;2023-02-28T13:10:21;75.45;;;39.55;;
76357;SDS011;65185;21.060;105.826;2023-02-28T13:12:49;80.10;;;38.28;;
76357;SDS011;65185;21.060;105.826;2023-02-28T13:17:55;71.68;;;36.72;;
76357;SDS011;65185;21.060;105.826;2023-02-28T13:20:25;74.95;;;38.83;;
76357;SDS011;65185;21.060;105.826;2023-02-28T13:22:57;75.32;;;38.97;;
76357;SDS011;65185;21.060;105.826;2023-02-28T13:28:12;72.60;;;37.05;;
76357;SDS011;65185;21.060;105.826;2023-02-28T13:31:03;76.18;;;37.72;;
76357;SDS011;65185;21.060;105.826;2023-02-28T13:39:00;73.45;;;36.08;;
76357;SDS011;65185;21.060;105.826;2023-02-28T13:42:17;72.45;;;38.13;;
76357;SDS011;65185;21.060;105.826;2023-02-28T13:58:48;75.40;;;36.38;;
76357;SDS011;65185;21.060;105.826;2023-02-28T14:07:21;67.72;;;33.35;;
76357;SDS011;65185;21.060;105.826;2023-02-28T14:10:04;63.65;;;30.90;;
76357;SDS011;65185;21.060;105.826;2023-02-28T14:18:51;65.72;;;33.65;;
76357;SDS011;65185;21.060;105.826;2023-02-28T14:20:54;65.90;;;33.55;;
76357;SDS011;65185;21.060;105.826;2023-02-28T14:35:43;61.85;;;31.80;;
76357;SDS011;65185;21.060;105.826;2023-02-28T14:38:26;67.38;;;33.28;;
76357;SDS011;65185;21.060;105.826;2023-02-28T14:43:31;69.43;;;33.03;;
76357;SDS011;65185;21.060;105.826;2023-02-28T14:46:00;60.65;;;31.38;;
76357;SDS011;65185;21.060;105.826;2023-02-28T14:48:31;76.00;;;33.53;;
76357;SDS011;65185;21.060;105.826;2023-02-28T14:50:59;59.35;;;29.75;;
76357;SDS011;65185;21.060;105.826;2023-02-28T14:53:28;71.43;;;33.72;;
76357;SDS011;65185;21.060;105.826;2023-02-28T14:56:01;65.13;;;31.38;;
76357;SDS011;65185;21.060;105.826;2023-02-28T14:58:29;61.97;;;30.77;;
76357;SDS011;65185;21.060;105.826;2023-02-28T15:00:59;58.72;;;31.38;;
76357;SDS011;65185;21.060;105.826;2023-02-28T15:05:58;64.82;;;31.13;;
76357;SDS011;65185;21.060;105.826;2023-02-28T15:08:28;54.42;;;28.33;;
76357;SDS011;65185;21.060;105.826;2023-02-28T15:11:16;65.10;;;31.42;;
76357;SDS011;65185;21.060;105.826;2023-02-28T15:13:47;62.63;;;29.10;;
76357;SDS011;65185;21.060;105.826;2023-02-28T15:21:55;71.80;;;32.00;;
76357;SDS011;65185;21.060;105.826;2023-02-28T15:24:38;67.00;;;31.73;;
76357;SDS011;65185;21.060;105.826;2023-02-28T15:29:50;65.45;;;32.08;;
76357;SDS011;65185;21.060;105.826;2023-02-28T15:32:28;72.70;;;31.98;;
76357;SDS011;65185;21.060;105.826;2023-02-28T15:40:15;59.85;;;31.23;;
76357;SDS011;65185;21.060;105.826;2023-02-28T15:42:57;67.75;;;34.22;;
76357;SDS011;65185;21.060;105.826;2023-02-28T15:45:36;63.25;;;33.10;;
76357;SDS011;65185;21.060;105.826;2023-02-28T15:48:28;60.17;;;31.05;;
76357;SDS011;65185;21.060;105.826;2023-02-28T15:50:57;69.93;;;34.30;;
76357;SDS011;65185;21.060;105.826;2023-02-28T15:53:34;65.05;;;32.38;;
76357;SDS011;65185;21.060;105.826;2023-02-28T15:56:31;67.95;;;35.72;;
76357;SDS011;65185;21.060;105.826;2023-02-28T15:59:02;65.55;;;33.97;;
76357;SDS011;65185;21.060;105.826;2023-02-28T16:01:34;74.10;;;35.08;;
76357;SDS011;65185;21.060;105.826;2023-02-28T16:04:18;65.05;;;33.38;;
76357;SDS011;65185;21.060;105.826;2023-02-28T16:07:01;70.75;;;34.28;;
76357;SDS011;65185;21.060;105.826;2023-02-28T16:09:30;69.25;;;33.78;;
76357;SDS011;65185;21.060;105.826;2023-02-28T16:12:00;69.22;;;34.80;;
76357;SDS011;65185;21.060;105.826;2023-02-28T16:14:28;56.88;;;30.65;;
76357;SDS011;65185;21.060;105.826;2023-02-28T16:16:57;66.60;;;33.35;;
76357;SDS011;65185;21.060;105.826;2023-02-28T16:19:30;62.95;;;32.83;;
76357;SDS011;65185;21.060;105.826;2023-02-28T16:21:58;60.60;;;31.88;;
76357;SDS011;65185;21.060;105.826;2023-02-28T16:24:26;62.38;;;31.45;;
76357;SDS011;65185;21.060;105.826;2023-02-28T16:26:53;58.10;;;30.38;;
76357;SDS011;65185;21.060;105.826;2023-02-28T16:31:55;68.50;;;32.20;;
76357;SDS011;65185;21.060;105.826;2023-02-28T16:34:23;62.33;;;31.98;;
76357;SDS011;65185;21.060;105.826;2023-02-28T16:36:50;56.63;;;29.23;;
76357;SDS011;65185;21.060;105.826;2023-02-28T16:39:17;69.43;;;32.58;;
76357;SDS011;65185;21.060;105.826;2023-02-28T16:41:46;57.10;;;29.50;;
76357;SDS011;65185;21.060;105.826;2023-02-28T16:44:26;61.80;;;32.63;;
76357;SDS011;65185;21.060;105.826;2023-02-28T16:46:59;60.70;;;30.67;;
76357;SDS011;65185;21.060;105.826;2023-02-28T16:49:27;61.50;;;31.50;;
76357;SDS011;65185;21.060;105.826;2023-02-28T16:51:54;71.78;;;33.33;;
76357;SDS011;65185;21.060;105.826;2023-02-28T16:54:21;63.83;;;31.80;;
76357;SDS011;65185;21.060;105.826;2023-02-28T16:56:48;68.90;;;36.03;;
76357;SDS011;65185;21.060;105.826;2023-02-28T16:59:17;84.72;;;46.13;;
76357;SDS011;65185;21.060;105.826;2023-02-28T17:01:48;73.20;;;37.05;;
76357;SDS011;65185;21.060;105.826;2023-02-28T17:04:16;59.20;;;31.30;;
76357;SDS011;65185;21.060;105.826;2023-02-28T17:06:43;61.35;;;30.52;;
76357;SDS011;65185;21.060;105.826;2023-02-28T17:09:19;70.05;;;33.78;;
76357;SDS011;65185;21.060;105.826;2023-02-28T17:11:47;69.82;;;34.53;;
76357;SDS011;65185;21.060;105.826;2023-02-28T17:14:15;69.65;;;31.88;;
76357;SDS011;65185;21.060;105.826;2023-02-28T17:16:42;61.97;;;30.50;;
76357;SDS011;65185;21.060;105.826;2023-02-28T17:19:11;72.32;;;34.70;;
76357;SDS011;65185;21.060;105.826;2023-02-28T17:21:42;68.88;;;33.28;;
76357;SDS011;65185;21.060;105.826;2023-02-28T17:24:12;68.97;;;33.03;;
76357;SDS011;65185;21.060;105.826;2023-02-28T17:26:39;59.15;;;33.00;;
76357;SDS011;65185;21.060;105.826;2023-02-28T17:29:17;72.65;;;33.92;;
76357;SDS011;65185;21.060;105.826;2023-02-28T17:31:46;69.75;;;34.45;;